createdAt,value
2017-12-22T00:01:52.956Z,24.60
2017-12-22T00:04:20.362Z,20.50
2017-12-22T00:06:47.759Z,21.67
2017-12-22T00:09:15.915Z,22.30
2017-12-22T00:11:43.307Z,23.10
2017-12-22T00:14:10.707Z,22.27
2017-12-22T00:16:38.104Z,22.27
2017-12-22T00:19:05.500Z,21.73
2017-12-22T00:21:32.905Z,24.60
2017-12-22T00:24:00.303Z,22.17
2017-12-22T00:26:27.704Z,23.10
2017-12-22T00:28:55.153Z,24.77
2017-12-22T00:31:22.527Z,23.30
2017-12-22T00:33:49.931Z,23.47
2017-12-22T00:36:17.336Z,23.67
2017-12-22T00:38:44.738Z,23.60
2017-12-22T00:41:12.137Z,23.77
2017-12-22T00:43:39.554Z,22.50
2017-12-22T00:46:06.950Z,22.50
2017-12-22T00:48:34.403Z,23.90
2017-12-22T00:51:01.798Z,23.47
2017-12-22T00:53:29.206Z,23.53
2017-12-22T00:55:57.664Z,23.13
2017-12-22T00:58:25.056Z,22.23
2017-12-22T01:00:52.467Z,23.17
2017-12-22T01:03:19.934Z,21.97
2017-12-22T01:05:47.336Z,22.17
2017-12-22T01:08:14.739Z,23.47
2017-12-22T01:10:42.126Z,23.43
2017-12-22T01:13:09.533Z,26.70
2017-12-22T01:15:42.486Z,23.70
2017-12-22T01:18:15.575Z,23.70
2017-12-22T01:20:42.983Z,23.00
2017-12-22T01:23:10.379Z,23.20
2017-12-22T01:25:37.815Z,23.63
2017-12-22T01:28:05.218Z,22.90
2017-12-22T01:30:32.620Z,24.20
2017-12-22T01:33:00.008Z,25.33
2017-12-22T01:35:27.403Z,23.50
2017-12-22T01:37:54.802Z,22.47
2017-12-22T01:40:22.199Z,23.30
2017-12-22T01:42:49.682Z,24.67
2017-12-22T01:45:17.085Z,22.10
2017-12-22T01:47:44.475Z,23.23
2017-12-22T01:50:11.880Z,22.40
2017-12-22T01:52:39.275Z,23.20
2017-12-22T01:55:06.674Z,22.80
2017-12-22T01:57:34.064Z,22.57
2017-12-22T02:00:01.506Z,24.10
2017-12-22T02:02:28.927Z,24.17
2017-12-22T02:04:56.326Z,22.90
2017-12-22T02:07:23.719Z,22.13
2017-12-22T02:09:51.120Z,22.37
2017-12-22T02:12:18.547Z,23.10
2017-12-22T02:14:45.939Z,22.03
2017-12-22T02:17:13.331Z,23.90
2017-12-22T02:19:40.778Z,23.40
2017-12-22T02:22:08.207Z,22.57
2017-12-22T02:24:35.610Z,22.53
2017-12-22T02:27:03.015Z,24.90
2017-12-22T02:29:30.408Z,24.97
2017-12-22T02:31:58.039Z,22.95
2017-12-22T02:34:31.251Z,25.60
2017-12-22T02:36:58.741Z,22.27
2017-12-22T02:39:26.203Z,24.60
2017-12-22T02:41:53.658Z,24.63
2017-12-22T02:44:21.048Z,24.80
2017-12-22T02:46:48.443Z,24.27
2017-12-22T02:49:15.836Z,24.40
2017-12-22T02:51:43.240Z,23.37
2017-12-22T02:54:10.637Z,23.10
2017-12-22T02:56:38.040Z,25.00
2017-12-22T02:59:05.431Z,26.70
2017-12-22T03:01:32.835Z,25.47
2017-12-22T03:04:00.227Z,23.53
2017-12-22T03:06:27.643Z,24.23
2017-12-22T03:08:55.030Z,27.23
2017-12-22T03:11:22.431Z,24.43
2017-12-22T03:13:49.832Z,24.47
2017-12-22T03:16:17.289Z,25.60
2017-12-22T03:18:44.678Z,25.57
2017-12-22T03:21:12.080Z,28.40
2017-12-22T03:23:39.471Z,28.43
2017-12-22T03:26:06.870Z,27.20
2017-12-22T03:28:34.268Z,27.73
2017-12-22T03:31:01.674Z,29.23
2017-12-22T03:33:29.063Z,26.30
2017-12-22T03:35:56.476Z,27.00
2017-12-22T03:38:23.863Z,26.57
2017-12-22T03:40:51.263Z,25.93
2017-12-22T03:43:18.663Z,25.03
2017-12-22T03:45:46.063Z,27.20
2017-12-22T03:48:13.467Z,30.17
2017-12-22T03:50:40.867Z,30.73
2017-12-22T03:53:08.264Z,31.70
2017-12-22T03:55:35.662Z,30.67
2017-12-22T03:58:03.071Z,29.77
2017-12-22T04:00:30.472Z,29.67
2017-12-22T04:02:57.892Z,29.00
2017-12-22T04:05:25.289Z,31.77
2017-12-22T04:07:52.778Z,29.30
2017-12-22T04:10:20.171Z,29.03
2017-12-22T04:12:47.576Z,28.33
2017-12-22T04:15:14.979Z,28.70
2017-12-22T04:17:42.407Z,28.07
2017-12-22T04:20:09.843Z,27.90
2017-12-22T04:22:37.239Z,24.80
2017-12-22T04:25:04.634Z,26.47
2017-12-22T04:27:32.058Z,27.77
2017-12-22T04:29:59.450Z,27.67
2017-12-22T04:32:26.854Z,27.03
2017-12-22T04:34:54.248Z,24.00
2017-12-22T04:37:21.651Z,21.77
2017-12-22T04:39:49.045Z,20.43
2017-12-22T04:42:16.452Z,19.50
2017-12-22T04:44:43.840Z,19.57
2017-12-22T04:47:11.782Z,20.80
2017-12-22T04:49:39.179Z,18.23
2017-12-22T04:52:06.584Z,19.90
2017-12-22T04:54:33.970Z,20.67
2017-12-22T04:57:01.498Z,22.07
2017-12-22T04:59:28.971Z,21.20
2017-12-22T05:01:56.332Z,21.47
2017-12-22T05:04:23.731Z,19.67
2017-12-22T05:06:51.211Z,20.23
2017-12-22T05:09:18.600Z,20.37
2017-12-22T05:11:45.998Z,22.07
2017-12-22T05:14:13.402Z,23.10
2017-12-22T05:16:40.812Z,21.80
2017-12-22T05:19:08.208Z,24.17
2017-12-22T05:21:35.619Z,24.53
2017-12-22T05:24:03.027Z,23.80
2017-12-22T05:26:30.431Z,24.17
2017-12-22T05:28:57.920Z,26.33
2017-12-22T05:31:25.303Z,24.33
2017-12-22T05:33:52.696Z,26.70
2017-12-22T05:36:20.105Z,24.23
2017-12-22T05:38:47.499Z,24.90
2017-12-22T05:41:14.917Z,23.10
2017-12-22T05:43:42.307Z,20.20
2017-12-22T05:46:09.791Z,19.20
2017-12-22T05:48:37.182Z,19.00
2017-12-22T05:51:04.607Z,20.00
2017-12-22T05:53:32.060Z,20.00
2017-12-22T05:55:59.459Z,17.20
2017-12-22T05:58:26.871Z,18.47
2017-12-22T06:00:54.279Z,19.43
2017-12-22T06:03:21.667Z,18.63
2017-12-22T06:05:49.070Z,20.57
2017-12-22T06:08:16.459Z,20.93
2017-12-22T06:10:43.887Z,21.73
2017-12-22T06:13:11.294Z,22.50
2017-12-22T06:15:38.683Z,22.83
2017-12-22T06:18:06.115Z,23.00
2017-12-22T06:20:33.507Z,23.23
2017-12-22T06:23:00.909Z,24.27
2017-12-22T06:25:28.300Z,20.47
2017-12-22T06:27:56.346Z,21.30
2017-12-22T06:30:23.738Z,20.50
2017-12-22T06:32:51.138Z,21.27
2017-12-22T06:35:18.532Z,24.03
2017-12-22T06:37:45.934Z,23.27
2017-12-22T06:40:13.351Z,22.10
2017-12-22T06:42:40.748Z,22.83
2017-12-22T06:45:08.162Z,22.83
2017-12-22T06:47:35.562Z,23.07
2017-12-22T06:50:03.058Z,19.90
2017-12-22T06:52:30.458Z,22.43
2017-12-22T06:54:57.851Z,21.33
2017-12-22T06:57:25.260Z,22.63
2017-12-22T06:59:52.647Z,22.03
2017-12-22T07:02:20.046Z,20.62
2017-12-22T07:04:47.442Z,22.13
2017-12-22T07:07:15.768Z,21.90
2017-12-22T07:09:43.186Z,22.87
2017-12-22T07:12:10.651Z,22.57
2017-12-22T07:14:38.140Z,20.27
2017-12-22T07:17:06.175Z,20.63
2017-12-22T07:19:33.574Z,22.93
2017-12-22T07:22:00.975Z,22.03
2017-12-22T07:24:28.468Z,22.10
2017-12-22T07:26:55.846Z,22.33
2017-12-22T07:29:23.244Z,22.80
2017-12-22T07:31:50.651Z,21.50
2017-12-22T07:34:18.097Z,23.07
2017-12-22T07:36:45.482Z,23.40
2017-12-22T07:39:12.886Z,23.13
2017-12-22T07:41:40.305Z,19.80
2017-12-22T07:44:07.703Z,20.83
2017-12-22T07:46:35.107Z,21.00
2017-12-22T07:49:02.495Z,21.83
2017-12-22T07:51:29.992Z,22.73
2017-12-22T07:53:57.379Z,25.20
2017-12-22T07:56:24.778Z,23.13
2017-12-22T07:58:52.186Z,24.13
2017-12-22T08:01:19.578Z,24.73
2017-12-22T08:03:47.042Z,26.00
2017-12-22T08:06:14.442Z,23.67
2017-12-22T08:08:41.861Z,23.97
2017-12-22T08:11:09.251Z,24.90
2017-12-22T08:13:36.651Z,25.50
2017-12-22T08:16:04.071Z,26.10
2017-12-22T08:18:31.584Z,26.47
2017-12-22T08:20:58.973Z,24.40
2017-12-22T08:23:26.536Z,24.07
2017-12-22T08:25:53.926Z,22.90
2017-12-22T08:28:21.327Z,23.70
2017-12-22T08:30:48.750Z,24.17
2017-12-22T08:33:16.151Z,20.90
2017-12-22T08:35:43.544Z,22.73
2017-12-22T08:38:10.973Z,22.17
2017-12-22T08:40:38.403Z,22.37
2017-12-22T08:43:05.796Z,21.70
2017-12-22T08:45:33.255Z,22.57
2017-12-22T08:48:00.650Z,22.17
2017-12-22T08:50:28.063Z,21.40
2017-12-22T08:52:55.470Z,20.80
2017-12-22T08:55:22.860Z,20.60
2017-12-22T08:57:50.259Z,20.30
2017-12-22T09:00:17.651Z,18.90
2017-12-22T09:02:45.055Z,20.17
2017-12-22T09:05:12.448Z,18.90
2017-12-22T09:07:39.858Z,18.43
2017-12-22T09:10:07.300Z,16.60
2017-12-22T09:12:34.695Z,18.00
2017-12-22T09:15:02.087Z,16.63
2017-12-22T09:17:29.507Z,17.70
2017-12-22T09:19:56.946Z,16.83
2017-12-22T09:22:24.347Z,16.40
2017-12-22T09:24:51.734Z,18.20
2017-12-22T09:27:19.184Z,20.93
2017-12-22T09:29:46.539Z,17.40
2017-12-22T09:32:13.943Z,18.43
2017-12-22T09:34:41.387Z,17.40
2017-12-22T09:37:08.959Z,16.07
2017-12-22T09:39:36.360Z,16.77
2017-12-22T09:42:03.855Z,18.90
2017-12-22T09:44:31.251Z,18.23
2017-12-22T09:46:58.679Z,18.83
2017-12-22T09:49:26.075Z,21.00
2017-12-22T09:51:53.477Z,18.93
2017-12-22T09:54:20.866Z,17.20
2017-12-22T09:56:48.295Z,19.47
2017-12-22T09:59:16.488Z,20.93
2017-12-22T10:01:43.876Z,20.77
2017-12-22T10:04:11.274Z,19.53
2017-12-22T10:06:38.714Z,20.73
2017-12-22T10:09:06.100Z,30.57
2017-12-22T10:11:33.487Z,27.13
2017-12-22T10:14:00.882Z,31.40
2017-12-22T10:16:28.279Z,26.37
2017-12-22T10:18:55.675Z,23.60
2017-12-22T10:21:23.080Z,19.07
2017-12-22T10:23:50.486Z,20.10
2017-12-22T10:26:17.977Z,18.07
2017-12-22T10:28:45.379Z,17.60
2017-12-22T10:31:12.779Z,17.55
2017-12-22T10:33:40.171Z,16.53
2017-12-22T10:36:07.563Z,17.40
2017-12-22T10:38:34.974Z,17.93
2017-12-22T10:41:02.372Z,18.50
2017-12-22T10:43:29.779Z,18.77
2017-12-22T10:45:57.176Z,20.30
2017-12-22T10:48:24.591Z,20.27
2017-12-22T10:50:51.992Z,18.90
2017-12-22T10:53:19.399Z,20.13
2017-12-22T10:55:46.793Z,19.80
2017-12-22T10:58:14.290Z,20.30
2017-12-22T11:00:41.683Z,20.73
2017-12-22T11:03:09.085Z,22.27
2017-12-22T11:05:36.506Z,20.10
2017-12-22T11:08:03.903Z,23.70
2017-12-22T11:10:31.296Z,24.43
2017-12-22T11:12:58.727Z,22.23
2017-12-22T11:15:26.123Z,22.00
2017-12-22T11:17:53.527Z,21.27
2017-12-22T11:20:21.073Z,22.30
2017-12-22T11:22:48.455Z,22.23
2017-12-22T11:25:15.921Z,23.03
2017-12-22T11:27:43.267Z,23.73
2017-12-22T11:30:10.742Z,23.87
2017-12-22T11:32:38.134Z,25.70
2017-12-22T11:35:05.527Z,26.57
2017-12-22T11:37:32.920Z,23.63
2017-12-22T11:40:00.318Z,23.30
2017-12-22T11:42:27.726Z,22.17
2017-12-22T11:44:55.121Z,22.87
2017-12-22T11:47:22.551Z,22.50
2017-12-22T11:49:49.946Z,20.90
2017-12-22T11:52:17.397Z,21.20
2017-12-22T11:54:44.791Z,21.27
2017-12-22T11:57:12.189Z,20.73
2017-12-22T11:59:39.595Z,20.27
2017-12-22T12:02:06.999Z,18.48
2017-12-22T12:04:34.400Z,17.00
2017-12-22T12:07:01.815Z,17.70
2017-12-22T12:09:29.271Z,18.30
2017-12-22T12:11:56.667Z,17.57
2017-12-22T12:14:24.700Z,17.40
2017-12-22T12:16:52.083Z,16.03
2017-12-22T12:19:19.486Z,16.87
2017-12-22T12:21:46.886Z,16.43
2017-12-22T12:24:14.340Z,14.73
2017-12-22T12:26:41.744Z,14.47
2017-12-22T12:29:09.143Z,17.00
2017-12-22T12:31:36.545Z,14.30
2017-12-22T12:34:03.959Z,14.40
2017-12-22T12:36:31.395Z,14.80
2017-12-22T12:38:58.790Z,14.50
2017-12-22T12:41:26.197Z,13.43
2017-12-22T12:43:53.597Z,15.13
2017-12-22T12:46:21.003Z,13.80
2017-12-22T12:48:48.423Z,15.33
2017-12-22T12:51:15.821Z,15.77
2017-12-22T12:53:43.278Z,15.30
2017-12-22T12:56:10.681Z,18.03
2017-12-22T12:58:38.074Z,16.17
2017-12-22T13:01:05.471Z,15.30
2017-12-22T13:03:32.878Z,16.40
2017-12-22T13:06:00.270Z,16.13
2017-12-22T13:08:27.672Z,15.37
2017-12-22T13:10:55.220Z,15.00
2017-12-22T13:13:22.659Z,14.13
2017-12-22T13:15:50.059Z,14.03
2017-12-22T13:18:17.479Z,14.90
2017-12-22T13:20:45.085Z,13.67
2017-12-22T13:23:12.491Z,14.97
2017-12-22T13:25:39.891Z,15.00
2017-12-22T13:28:07.291Z,14.50
2017-12-22T13:30:34.724Z,15.03
2017-12-22T13:33:02.106Z,14.80
2017-12-22T13:35:29.498Z,14.17
2017-12-22T13:37:56.899Z,14.73
2017-12-22T13:40:24.290Z,15.40
2017-12-22T13:42:51.707Z,15.80
2017-12-22T13:45:19.103Z,15.60
2017-12-22T13:47:46.490Z,16.50
2017-12-22T13:50:13.883Z,16.70
2017-12-22T13:52:41.286Z,15.57
2017-12-22T13:55:08.926Z,15.77
2017-12-22T13:57:36.370Z,16.87
2017-12-22T14:00:04.076Z,16.30
2017-12-22T14:02:31.470Z,15.00
2017-12-22T14:04:59.676Z,16.60
2017-12-22T14:07:27.092Z,16.20
2017-12-22T14:09:54.493Z,14.87
2017-12-22T14:12:21.891Z,16.60
2017-12-22T14:14:49.300Z,15.80
2017-12-22T14:17:16.745Z,16.37
2017-12-22T14:19:44.088Z,15.20
2017-12-22T14:22:11.487Z,15.87
2017-12-22T14:24:38.891Z,14.93
2017-12-22T14:27:06.287Z,14.47
2017-12-22T14:29:33.683Z,14.57
2017-12-22T14:32:01.527Z,15.30
2017-12-22T14:34:28.947Z,16.00
2017-12-22T14:36:56.343Z,15.67
2017-12-22T14:39:23.743Z,17.27
2017-12-22T14:41:51.149Z,16.07
2017-12-22T14:44:18.534Z,16.33
2017-12-22T14:46:45.927Z,16.10
2017-12-22T14:49:13.330Z,17.90
2017-12-22T14:51:40.826Z,18.07
2017-12-22T14:54:08.247Z,18.60
2017-12-22T14:56:35.640Z,17.17
2017-12-22T14:59:03.039Z,17.23
2017-12-22T15:01:30.431Z,18.37
2017-12-22T15:03:57.839Z,18.00
2017-12-22T15:06:25.230Z,19.03
2017-12-22T15:08:52.626Z,18.70
2017-12-22T15:11:20.025Z,20.63
2017-12-22T15:13:47.429Z,20.33
2017-12-22T15:16:14.844Z,19.47
2017-12-22T15:18:42.247Z,21.70
2017-12-22T15:21:09.638Z,19.60
2017-12-22T15:23:37.143Z,20.20
2017-12-22T15:26:04.543Z,18.40
2017-12-22T15:28:31.955Z,17.90
2017-12-22T15:30:59.346Z,20.77
2017-12-22T15:33:26.767Z,20.20
2017-12-22T15:35:54.170Z,20.70
2017-12-22T15:38:21.560Z,20.10
2017-12-22T15:40:48.951Z,19.90
2017-12-22T15:43:16.347Z,22.70
2017-12-22T15:45:43.754Z,22.00
2017-12-22T15:48:11.147Z,19.53
2017-12-22T15:50:38.690Z,20.67
2017-12-22T15:53:06.087Z,21.87
2017-12-22T15:55:33.486Z,22.50
2017-12-22T15:58:00.935Z,22.63
2017-12-22T16:00:28.338Z,22.53
2017-12-22T16:02:55.737Z,23.17
2017-12-22T16:05:23.136Z,23.40
2017-12-22T16:07:50.523Z,24.10
2017-12-22T16:10:17.927Z,22.97
2017-12-22T16:12:45.331Z,25.27
2017-12-22T16:15:12.724Z,24.47
2017-12-22T16:17:40.110Z,24.70
2017-12-22T16:20:07.507Z,24.57
2017-12-22T16:22:34.898Z,24.60
2017-12-22T16:25:02.322Z,24.53
2017-12-22T16:27:29.699Z,24.57
2017-12-22T16:29:57.102Z,27.10
2017-12-22T16:32:24.500Z,27.70
2017-12-22T16:34:51.890Z,26.87
2017-12-22T16:37:19.303Z,24.30
2017-12-22T16:39:46.702Z,24.23
2017-12-22T16:42:14.091Z,27.13
2017-12-22T16:44:41.569Z,25.07
2017-12-22T16:47:08.974Z,26.33
2017-12-22T16:49:36.358Z,26.57
2017-12-22T16:52:03.756Z,24.27
2017-12-22T16:54:31.155Z,25.57
2017-12-22T16:56:58.661Z,24.43
2017-12-22T16:59:26.067Z,25.30
2017-12-22T17:01:53.470Z,24.40
2017-12-22T17:04:20.876Z,24.60
2017-12-22T17:06:48.267Z,23.27
2017-12-22T17:09:15.688Z,24.53
2017-12-22T17:11:43.099Z,24.37
2017-12-22T17:14:10.498Z,23.30
2017-12-22T17:16:37.897Z,23.87
2017-12-22T17:19:05.291Z,24.77
2017-12-22T17:21:32.678Z,27.40
2017-12-22T17:24:00.085Z,23.97
2017-12-22T17:26:27.470Z,26.93
2017-12-22T17:28:54.867Z,25.10
2017-12-22T17:31:22.267Z,26.33
2017-12-22T17:33:49.676Z,23.60
2017-12-22T17:36:17.058Z,25.40
2017-12-22T17:38:44.451Z,27.10
2017-12-22T17:41:11.855Z,26.03
2017-12-22T17:43:39.248Z,23.97
2017-12-22T17:46:06.653Z,24.20
2017-12-22T17:48:34.037Z,23.03
2017-12-22T17:51:01.445Z,23.70
2017-12-22T17:53:28.831Z,24.30
2017-12-22T17:55:56.239Z,25.40
2017-12-22T17:58:23.635Z,24.87
2017-12-22T18:00:51.137Z,23.57
2017-12-22T18:03:18.572Z,22.30
2017-12-22T18:05:45.971Z,21.73
2017-12-22T18:08:13.363Z,22.40
2017-12-22T18:10:40.772Z,26.30
2017-12-22T18:13:08.191Z,23.20
2017-12-22T18:15:35.588Z,24.97
2017-12-22T18:18:02.979Z,22.83
2017-12-22T18:20:30.374Z,32.43
2017-12-22T18:22:57.886Z,26.20
2017-12-22T18:25:25.279Z,27.73
2017-12-22T18:27:52.682Z,22.43
2017-12-22T18:30:20.082Z,23.50
2017-12-22T18:32:48.478Z,22.40
2017-12-22T18:35:15.874Z,25.20
2017-12-22T18:37:43.279Z,24.00
2017-12-22T18:40:10.686Z,24.97
2017-12-22T18:42:38.079Z,21.40
2017-12-22T18:45:05.489Z,25.27
2017-12-22T18:47:32.883Z,23.13
2017-12-22T18:50:00.288Z,23.13
2017-12-22T18:52:27.683Z,22.00
2017-12-22T18:54:55.084Z,25.33
2017-12-22T18:57:22.474Z,29.03
2017-12-22T18:59:49.885Z,25.13
2017-12-22T19:02:17.274Z,23.10
2017-12-22T19:04:44.764Z,23.80
2017-12-22T19:07:12.134Z,23.07
2017-12-22T19:09:39.563Z,26.50
2017-12-22T19:12:07.034Z,28.17
2017-12-22T19:14:34.449Z,25.27
2017-12-22T19:17:01.835Z,22.87
2017-12-22T19:19:29.257Z,19.10
2017-12-22T19:21:56.731Z,23.37
2017-12-22T19:24:24.138Z,24.60
2017-12-22T19:26:51.639Z,20.40
2017-12-22T19:29:19.030Z,19.43
2017-12-22T19:31:46.440Z,19.43
2017-12-22T19:34:13.848Z,20.07
2017-12-22T19:36:41.280Z,23.10
2017-12-22T19:39:08.676Z,20.23
2017-12-22T19:41:36.075Z,20.23
2017-12-22T19:44:03.476Z,22.53
2017-12-22T19:46:30.881Z,21.53
2017-12-22T19:48:58.278Z,20.00
2017-12-22T19:51:25.682Z,19.73
2017-12-22T19:53:53.147Z,21.83
2017-12-22T19:56:20.550Z,21.07
2017-12-22T19:58:47.943Z,20.63
2017-12-22T20:01:15.363Z,21.10
2017-12-22T20:03:42.778Z,21.60
2017-12-22T20:06:10.175Z,18.73
2017-12-22T20:08:37.571Z,20.90
2017-12-22T20:11:04.975Z,21.27
2017-12-22T20:13:32.373Z,20.50
2017-12-22T20:15:59.777Z,19.20
2017-12-22T20:18:27.166Z,19.87
2017-12-22T20:20:54.569Z,21.40
2017-12-22T20:23:21.956Z,27.20
2017-12-22T20:25:50.337Z,22.87
2017-12-22T20:28:17.742Z,23.07
2017-12-22T20:30:45.144Z,22.20
2017-12-22T20:33:12.575Z,20.87
2017-12-22T20:35:39.996Z,20.87
2017-12-22T20:38:07.383Z,21.37
2017-12-22T20:40:34.798Z,19.63
2017-12-22T20:43:02.247Z,19.77
2017-12-22T20:45:29.591Z,22.20
2017-12-22T20:47:56.993Z,19.83
2017-12-22T20:50:24.387Z,21.43
2017-12-22T20:52:51.807Z,23.87
2017-12-22T20:55:19.212Z,20.77
2017-12-22T20:57:46.683Z,20.77
2017-12-22T21:00:14.174Z,21.30
2017-12-22T21:02:41.577Z,21.67
2017-12-22T21:05:08.988Z,20.50
2017-12-22T21:07:36.422Z,20.13
2017-12-22T21:10:03.845Z,20.20
2017-12-22T21:12:31.271Z,20.63
2017-12-22T21:14:58.631Z,19.50
2017-12-22T21:17:26.027Z,20.87
2017-12-22T21:19:53.434Z,19.27
2017-12-22T21:22:20.838Z,21.63
2017-12-22T21:24:48.228Z,20.90
2017-12-22T21:27:15.632Z,19.70
2017-12-22T21:29:43.122Z,26.83
2017-12-22T21:32:10.579Z,22.20
2017-12-22T21:34:37.975Z,22.03
2017-12-22T21:37:05.375Z,22.20
2017-12-22T21:39:32.759Z,23.03
2017-12-22T21:42:00.163Z,25.70
2017-12-22T21:44:27.555Z,29.80
2017-12-22T21:46:54.960Z,21.37
2017-12-22T21:49:22.350Z,21.50
2017-12-22T21:51:49.777Z,21.77
2017-12-22T21:54:17.174Z,20.50
2017-12-22T21:56:44.659Z,22.23
2017-12-22T21:59:12.109Z,22.20
2017-12-22T22:01:39.502Z,20.70
2017-12-22T22:04:06.908Z,20.27
2017-12-22T22:06:34.315Z,19.83
2017-12-22T22:09:01.706Z,19.73
2017-12-22T22:11:29.102Z,17.47
2017-12-22T22:13:56.867Z,19.73
2017-12-22T22:16:24.323Z,19.53
2017-12-22T22:18:51.762Z,18.60
2017-12-22T22:21:19.167Z,18.40
2017-12-22T22:23:46.555Z,18.00
2017-12-22T22:26:13.991Z,18.00
2017-12-22T22:28:41.403Z,19.83
2017-12-22T22:31:08.816Z,18.03
2017-12-22T22:33:36.788Z,17.73
2017-12-22T22:36:04.343Z,17.70
2017-12-22T22:38:31.836Z,15.80
2017-12-22T22:40:59.250Z,16.20
2017-12-22T22:43:26.640Z,16.63
2017-12-22T22:45:54.130Z,14.60
2017-12-22T22:48:21.792Z,13.97
2017-12-22T22:50:49.188Z,12.63
2017-12-22T22:53:16.663Z,14.17
2017-12-22T22:55:44.067Z,13.87
2017-12-22T22:58:11.489Z,15.90
2017-12-22T23:00:38.886Z,15.50
2017-12-22T23:03:06.398Z,16.43
2017-12-22T23:05:33.783Z,16.23
2017-12-22T23:08:01.179Z,18.50
2017-12-22T23:10:28.654Z,18.43
2017-12-22T23:12:56.063Z,18.93
2017-12-22T23:15:23.460Z,19.37
2017-12-22T23:17:50.854Z,18.33
2017-12-22T23:20:18.247Z,17.97
2017-12-22T23:22:45.663Z,17.23
2017-12-22T23:25:13.058Z,14.40
2017-12-22T23:27:40.472Z,13.73
2017-12-22T23:30:07.864Z,15.50
2017-12-22T23:32:35.283Z,13.57
2017-12-22T23:35:02.711Z,13.77
2017-12-22T23:37:30.129Z,16.70
2017-12-22T23:39:57.539Z,18.30
2017-12-22T23:42:24.945Z,18.40
2017-12-22T23:44:52.336Z,20.20
2017-12-22T23:47:19.726Z,19.80
2017-12-22T23:49:47.138Z,20.40
2017-12-22T23:52:14.538Z,17.90
2017-12-22T23:54:41.951Z,17.67
2017-12-22T23:57:09.378Z,17.23
2017-12-22T23:59:36.775Z,19.67
